Webcam

2021/01/22 17:50 EBBR 221750Z 21006KT CAVOK 02/M01 Q0996 NOSIG

Webcam

--- Refresh now ---